createdAt,value
2019-04-10T00:00:44.171Z,36.07
2019-04-10T00:03:25.789Z,33.23
2019-04-10T00:05:44.841Z,34.30
2019-04-10T00:08:14.385Z,41.40
2019-04-10T00:10:43.893Z,36.73
2019-04-10T00:13:14.184Z,36.20
2019-04-10T00:15:43.974Z,35.23
2019-04-10T00:18:13.722Z,36.70
2019-04-10T00:20:43.200Z,35.70
2019-04-10T00:23:13.173Z,41.63
2019-04-10T00:25:43.459Z,33.57
2019-04-10T00:28:13.025Z,37.40
2019-04-10T00:30:43.063Z,39.70
2019-04-10T00:33:12.783Z,38.53
2019-04-10T00:35:42.306Z,40.73
2019-04-10T00:38:11.844Z,38.13
2019-04-10T00:40:41.674Z,39.63
2019-04-10T00:43:11.060Z,40.20
2019-04-10T00:45:40.558Z,39.03
2019-04-10T00:48:10.290Z,38.07
2019-04-10T00:50:39.649Z,48.27
2019-04-10T00:53:09.990Z,42.13
2019-04-10T00:55:40.958Z,44.90
2019-04-10T00:58:10.314Z,40.00
2019-04-10T01:00:39.951Z,47.63
2019-04-10T01:03:09.401Z,45.30
2019-04-10T01:05:39.669Z,42.73
2019-04-10T01:08:10.598Z,42.30
2019-04-10T01:10:40.112Z,41.03
2019-04-10T01:13:10.339Z,45.30
2019-04-10T01:15:40.188Z,39.97
2019-04-10T01:18:09.544Z,37.63
2019-04-10T01:20:39.837Z,39.33
2019-04-10T01:23:09.864Z,37.67
2019-04-10T01:25:39.430Z,35.90
2019-04-10T01:28:08.901Z,40.17
2019-04-10T01:30:38.548Z,37.73
2019-04-10T01:33:08.227Z,35.23
2019-04-10T01:35:38.346Z,41.10
2019-04-10T01:38:07.838Z,40.17
2019-04-10T01:40:37.426Z,38.50
2019-04-10T01:43:12.934Z,42.27
2019-04-10T01:45:38.000Z,41.63
2019-04-10T01:48:07.919Z,43.03
2019-04-10T01:50:37.508Z,40.10
2019-04-10T01:53:07.174Z,41.17
2019-04-10T01:55:36.575Z,43.27
2019-04-10T01:58:10.641Z,41.47
2019-04-10T02:00:43.804Z,43.13
2019-04-10T02:03:13.912Z,45.10
2019-04-10T02:05:44.945Z,40.80
2019-04-10T02:08:16.490Z,43.07
2019-04-10T02:10:45.946Z,42.10
2019-04-10T02:13:15.400Z,43.33
2019-04-10T02:15:45.995Z,39.30
2019-04-10T02:18:15.568Z,42.57
2019-04-10T02:20:45.221Z,43.30
2019-04-10T02:23:14.722Z,46.70
2019-04-10T02:25:45.085Z,45.07
2019-04-10T02:28:15.086Z,45.37
2019-04-10T02:30:45.877Z,42.93
2019-04-10T02:33:15.931Z,44.17
2019-04-10T02:35:45.787Z,43.53
2019-04-10T02:38:30.893Z,45.93
2019-04-10T02:40:47.531Z,44.70
2019-04-10T02:43:18.752Z,44.27
2019-04-10T02:45:49.347Z,51.37
2019-04-10T02:48:19.438Z,46.60
2019-04-10T02:50:49.350Z,45.13
2019-04-10T02:53:19.529Z,44.10
2019-04-10T02:55:49.378Z,47.93
2019-04-10T02:58:20.420Z,49.73
2019-04-10T03:00:52.577Z,46.60
2019-04-10T03:03:22.432Z,53.37
2019-04-10T03:05:52.177Z,49.23
2019-04-10T03:08:39.592Z,49.80
2019-04-10T03:10:56.788Z,51.43
2019-04-10T03:13:26.854Z,51.53
2019-04-10T03:15:55.897Z,51.73
2019-04-10T03:18:25.459Z,49.03
2019-04-10T03:20:54.797Z,47.80
2019-04-10T03:23:25.169Z,43.60
2019-04-10T03:25:54.601Z,46.67
2019-04-10T03:28:24.945Z,44.03
2019-04-10T03:30:56.495Z,45.63
2019-04-10T03:33:47.215Z,45.67
2019-04-10T03:36:15.604Z,46.20
2019-04-10T03:38:55.459Z,40.87
2019-04-10T03:41:16.086Z,39.47
2019-04-10T03:43:45.832Z,40.43
2019-04-10T03:46:15.414Z,44.40
2019-04-10T03:48:45.210Z,45.83
2019-04-10T03:51:14.920Z,43.67
2019-04-10T03:53:44.580Z,46.67
2019-04-10T03:56:14.051Z,48.73
2019-04-10T03:58:43.914Z,54.73
2019-04-10T04:01:14.484Z,53.20
2019-04-10T04:03:44.707Z,53.53
2019-04-10T04:06:15.369Z,58.97
2019-04-10T04:08:45.886Z,68.23
2019-04-10T04:11:15.708Z,62.13
2019-04-10T04:13:45.901Z,65.97
2019-04-10T04:16:17.066Z,62.60
2019-04-10T04:18:46.746Z,72.40
2019-04-10T04:21:17.200Z,64.30
2019-04-10T04:23:46.894Z,66.53
2019-04-10T04:26:16.958Z,64.80
2019-04-10T04:28:46.557Z,66.10
2019-04-10T04:31:16.094Z,67.17
2019-04-10T04:33:45.434Z,71.70
2019-04-10T04:36:16.025Z,71.57
2019-04-10T04:38:45.554Z,69.30
2019-04-10T04:41:15.403Z,67.03
2019-04-10T04:43:47.203Z,69.63
2019-04-10T04:46:16.217Z,71.57
2019-04-10T04:48:45.776Z,74.40
2019-04-10T04:51:15.597Z,71.70
2019-04-10T04:53:45.095Z,71.27
2019-04-10T04:56:15.668Z,78.60
2019-04-10T04:58:45.643Z,77.97
2019-04-10T05:01:15.374Z,76.43
2019-04-10T05:03:44.874Z,79.73
2019-04-10T05:06:14.402Z,74.30
2019-04-10T05:08:44.004Z,76.07
2019-04-10T05:11:13.923Z,79.03
2019-04-10T05:13:43.569Z,76.27
2019-04-10T05:16:13.015Z,72.07
2019-04-10T05:18:43.503Z,76.60
2019-04-10T05:21:13.125Z,70.73
2019-04-10T05:23:42.849Z,70.03
2019-04-10T05:26:12.312Z,77.53
2019-04-10T05:28:41.790Z,71.93
2019-04-10T05:31:11.308Z,71.37
2019-04-10T05:33:40.840Z,72.07
2019-04-10T05:36:10.287Z,69.20
2019-04-10T05:38:39.822Z,72.30
2019-04-10T05:41:09.258Z,69.43
2019-04-10T05:43:38.867Z,69.13
2019-04-10T05:46:08.320Z,74.90
2019-04-10T05:48:37.934Z,69.93
2019-04-10T05:51:08.768Z,70.47
2019-04-10T05:53:38.436Z,66.80
2019-04-10T05:56:07.910Z,65.93
2019-04-10T05:58:37.343Z,72.10
2019-04-10T06:01:07.883Z,68.43
2019-04-10T06:03:37.261Z,69.33
2019-04-10T06:06:06.692Z,63.70
2019-04-10T06:08:37.302Z,60.90
2019-04-10T06:11:07.286Z,64.13
2019-04-10T06:13:37.180Z,64.80
2019-04-10T06:16:07.686Z,66.47
2019-04-10T06:18:37.636Z,67.30
2019-04-10T06:21:07.733Z,66.53
2019-04-10T06:23:37.654Z,65.53
2019-04-10T06:26:07.384Z,64.87
2019-04-10T06:28:37.997Z,68.77
2019-04-10T06:31:08.350Z,65.03
2019-04-10T06:33:38.170Z,61.50
2019-04-10T06:36:09.055Z,64.73
2019-04-10T06:38:39.143Z,70.00
2019-04-10T06:41:08.995Z,66.23
2019-04-10T06:43:39.290Z,63.83
2019-04-10T06:46:10.342Z,66.60
2019-04-10T06:48:40.380Z,67.00
2019-04-10T06:51:10.230Z,69.80
2019-04-10T06:53:39.783Z,70.03
2019-04-10T06:56:09.894Z,72.97
2019-04-10T06:58:41.082Z,74.97
2019-04-10T07:01:12.606Z,75.83
2019-04-10T07:03:52.778Z,75.43
2019-04-10T07:06:17.621Z,78.20
2019-04-10T07:08:48.860Z,75.20
2019-04-10T07:11:18.086Z,73.83
2019-04-10T07:13:47.057Z,74.63
2019-04-10T07:16:16.441Z,77.00
2019-04-10T07:18:48.996Z,71.20
2019-04-10T07:21:17.572Z,67.13
2019-04-10T07:23:47.218Z,73.40
2019-04-10T07:26:21.756Z,71.33
2019-04-10T07:28:48.997Z,64.73
2019-04-10T07:31:19.400Z,65.70
2019-04-10T07:33:51.667Z,65.27
2019-04-10T07:36:20.391Z,63.57
2019-04-10T07:38:53.916Z,64.67
2019-04-10T07:41:24.235Z,63.67
2019-04-10T07:43:55.335Z,59.87
2019-04-10T07:46:24.048Z,55.53
2019-04-10T07:48:54.445Z,61.10
2019-04-10T07:51:23.997Z,59.57
2019-04-10T07:53:53.460Z,60.40
2019-04-10T07:56:23.027Z,57.97
2019-04-10T07:58:52.496Z,64.57
2019-04-10T08:01:22.112Z,59.30
2019-04-10T08:03:52.887Z,65.33
2019-04-10T08:06:23.531Z,60.80
2019-04-10T08:08:53.324Z,63.00
2019-04-10T08:11:24.009Z,61.03
2019-04-10T08:13:55.061Z,60.70
2019-04-10T08:16:25.358Z,57.83
2019-04-10T08:18:56.219Z,65.33
2019-04-10T08:21:25.711Z,60.63
2019-04-10T08:23:55.396Z,62.10
2019-04-10T08:26:24.779Z,61.50
2019-04-10T08:28:54.232Z,59.33
2019-04-10T08:31:23.878Z,60.53
2019-04-10T08:33:54.678Z,59.20
2019-04-10T08:36:25.499Z,57.73
2019-04-10T08:38:55.052Z,57.47
2019-04-10T08:41:25.621Z,59.40
2019-04-10T08:43:56.714Z,57.07
2019-04-10T08:46:26.181Z,63.20
2019-04-10T08:48:56.007Z,61.13
2019-04-10T08:51:25.763Z,57.60
2019-04-10T08:53:56.698Z,58.90
2019-04-10T08:56:26.707Z,54.93
2019-04-10T08:58:57.259Z,53.80
2019-04-10T09:01:27.233Z,56.70
2019-04-10T09:03:57.398Z,55.80
2019-04-10T09:06:27.236Z,53.73
2019-04-10T09:08:57.189Z,50.60
2019-04-10T09:11:29.520Z,51.43
2019-04-10T09:13:58.903Z,51.93
2019-04-10T09:16:28.834Z,50.63
2019-04-10T09:18:58.654Z,49.40
2019-04-10T09:21:28.170Z,126.90
2019-04-10T09:23:58.963Z,51.97
2019-04-10T09:26:28.776Z,52.63
2019-04-10T09:28:59.070Z,48.70
2019-04-10T09:31:29.453Z,52.80
2019-04-10T09:33:59.201Z,52.03
2019-04-10T09:36:29.186Z,50.63
2019-04-10T09:38:59.126Z,56.70
2019-04-10T09:41:28.710Z,50.40
2019-04-10T09:43:58.293Z,48.87
2019-04-10T09:46:46.973Z,52.53
2019-04-10T09:49:16.677Z,50.17
2019-04-10T09:51:46.315Z,49.60
2019-04-10T09:54:15.802Z,50.80
2019-04-10T09:56:46.314Z,51.07
2019-04-10T09:59:16.116Z,52.07
2019-04-10T10:01:46.470Z,50.37
2019-04-10T10:04:15.997Z,50.63
2019-04-10T10:06:45.395Z,53.83
2019-04-10T10:09:15.093Z,49.77
2019-04-10T10:11:44.860Z,47.03
2019-04-10T10:14:14.544Z,48.33
2019-04-10T10:16:44.741Z,54.57
2019-04-10T10:19:14.231Z,51.20
2019-04-10T10:21:44.853Z,47.70
2019-04-10T10:24:14.328Z,47.90
2019-04-10T10:26:46.093Z,50.27
2019-04-10T10:29:15.198Z,45.87
2019-04-10T10:31:44.875Z,49.03
2019-04-10T10:34:14.519Z,46.97
2019-04-10T10:36:46.671Z,47.13
2019-04-10T10:39:21.091Z,47.87
2019-04-10T10:41:51.093Z,45.23
2019-04-10T10:44:21.837Z,43.80
2019-04-10T10:46:51.653Z,45.93
2019-04-10T10:49:21.204Z,45.30
2019-04-10T10:51:51.166Z,43.60
2019-04-10T10:54:21.063Z,47.97
2019-04-10T10:56:51.005Z,48.93
2019-04-10T10:59:21.702Z,49.83
2019-04-10T11:01:51.931Z,47.90
2019-04-10T11:04:21.478Z,45.27
2019-04-10T11:06:58.839Z,47.63
2019-04-10T11:09:22.449Z,48.70
2019-04-10T11:11:52.110Z,48.67
2019-04-10T11:14:21.628Z,45.07
2019-04-10T11:16:51.627Z,47.83
2019-04-10T11:19:21.438Z,44.83
2019-04-10T11:21:51.276Z,47.53
2019-04-10T11:24:20.709Z,45.03
2019-04-10T11:26:50.521Z,44.70
2019-04-10T11:29:22.040Z,43.77
2019-04-10T11:31:51.580Z,45.33
2019-04-10T11:34:22.579Z,47.63
2019-04-10T11:37:14.227Z,45.53
2019-04-10T11:41:55.288Z,44.83
2019-04-10T11:44:27.269Z,44.70
2019-04-10T11:46:58.591Z,46.27
2019-04-10T11:49:29.510Z,47.50
2019-04-10T11:52:01.294Z,41.53
2019-04-10T11:54:32.733Z,42.90
2019-04-10T11:57:04.146Z,46.83
2019-04-10T11:59:35.980Z,41.67
2019-04-10T12:02:06.481Z,44.47
2019-04-10T12:07:09.787Z,45.27
2019-04-10T12:12:11.131Z,44.63
2019-04-10T12:14:40.918Z,38.53
2019-04-10T12:17:10.470Z,41.63
2019-04-10T12:19:40.528Z,41.63
2019-04-10T12:22:11.610Z,38.93
2019-04-10T12:24:42.610Z,42.97
2019-04-10T12:27:12.627Z,41.50
2019-04-10T12:29:42.641Z,40.03
2019-04-10T12:32:12.469Z,40.37
2019-04-10T12:34:42.501Z,38.23
2019-04-10T12:37:13.295Z,43.30
2019-04-10T12:39:43.355Z,37.83
2019-04-10T12:42:14.218Z,40.53
2019-04-10T12:44:43.805Z,37.70
2019-04-10T12:47:13.477Z,36.70
2019-04-10T12:49:43.562Z,39.83
2019-04-10T12:52:13.066Z,35.30
2019-04-10T12:54:42.765Z,39.37
2019-04-10T12:57:12.748Z,34.93
2019-04-10T12:59:42.392Z,35.23
2019-04-10T13:02:13.411Z,35.37
2019-04-10T13:04:43.444Z,34.93
2019-04-10T13:07:13.621Z,35.03
2019-04-10T13:09:44.270Z,36.83
2019-04-10T13:12:15.247Z,36.40
2019-04-10T13:14:44.981Z,35.47
2019-04-10T13:17:14.434Z,36.23
2019-04-10T13:19:44.996Z,38.37
2019-04-10T13:22:14.561Z,35.30
2019-04-10T13:24:44.159Z,33.83
2019-04-10T13:27:14.692Z,36.90
2019-04-10T13:29:44.660Z,45.33
2019-04-10T13:32:14.589Z,37.43
2019-04-10T13:34:43.973Z,36.40
2019-04-10T13:37:14.237Z,32.93
2019-04-10T13:39:43.785Z,33.50
2019-04-10T13:42:14.759Z,33.20
2019-04-10T13:44:44.289Z,32.80
2019-04-10T13:47:13.845Z,33.20
2019-04-10T13:49:44.223Z,58.63
2019-04-10T13:52:14.171Z,39.27
2019-04-10T13:54:44.170Z,30.57
2019-04-10T13:57:15.011Z,31.17
2019-04-10T13:59:44.955Z,50.87
2019-04-10T14:02:24.367Z,37.07
2019-04-10T14:04:55.522Z,33.93
2019-04-10T14:07:26.514Z,33.90
2019-04-10T14:09:56.589Z,32.90
2019-04-10T14:12:29.468Z,40.33
2019-04-10T14:14:59.273Z,34.20
2019-04-10T14:17:29.850Z,37.40
2019-04-10T14:20:00.125Z,34.53
2019-04-10T14:22:29.756Z,33.33
2019-04-10T14:24:59.203Z,38.43
2019-04-10T14:27:30.198Z,34.50
2019-04-10T14:29:59.967Z,39.20
2019-04-10T14:32:37.646Z,41.50
2019-04-10T14:35:09.895Z,34.87
2019-04-10T14:37:39.700Z,35.23
2019-04-10T14:40:11.564Z,34.17
2019-04-10T14:42:42.381Z,37.47
2019-04-10T14:45:13.136Z,43.03
2019-04-10T14:47:43.469Z,33.87
2019-04-10T14:50:13.713Z,34.83
2019-04-10T14:52:43.371Z,33.03
2019-04-10T14:55:13.069Z,33.20
2019-04-10T14:57:43.288Z,31.57
2019-04-10T15:00:22.403Z,33.57
2019-04-10T15:02:52.078Z,32.70
2019-04-10T15:05:21.760Z,30.30
2019-04-10T15:07:51.659Z,32.67
2019-04-10T15:10:21.434Z,34.40
2019-04-10T15:12:50.925Z,34.93
2019-04-10T15:15:20.678Z,32.27
2019-04-10T15:17:50.649Z,37.53
2019-04-10T15:20:20.979Z,33.73
2019-04-10T15:22:50.424Z,34.80
2019-04-10T15:25:20.096Z,31.73
2019-04-10T15:27:49.705Z,30.60
2019-04-10T15:30:20.200Z,33.23
2019-04-10T15:32:49.896Z,31.87
2019-04-10T15:35:20.105Z,28.13
2019-04-10T15:37:49.696Z,28.37
2019-04-10T15:40:24.348Z,29.27
2019-04-10T15:42:50.494Z,29.70
2019-04-10T15:45:20.128Z,28.67
2019-04-10T15:47:54.132Z,29.20
2019-04-10T15:50:22.565Z,27.33
2019-04-10T15:52:52.195Z,28.87
2019-04-10T15:55:21.744Z,26.80
2019-04-10T15:57:55.235Z,26.60
2019-04-10T16:00:23.298Z,25.13
2019-04-10T16:02:53.932Z,25.27
2019-04-10T16:05:24.425Z,26.17
2019-04-10T16:07:55.171Z,26.40
2019-04-10T16:10:43.269Z,25.63
2019-04-10T16:13:35.174Z,25.13
2019-04-10T16:16:19.158Z,25.03
2019-04-10T16:18:49.798Z,26.77
2019-04-10T16:21:20.339Z,31.27
2019-04-10T16:23:56.525Z,24.87
2019-04-10T16:26:27.239Z,30.50
2019-04-10T16:28:57.613Z,27.53
2019-04-10T16:31:27.719Z,24.53
2019-04-10T16:33:58.524Z,26.27
2019-04-10T16:36:29.779Z,27.40
2019-04-10T16:38:59.338Z,25.90
2019-04-10T16:41:29.937Z,26.07
2019-04-10T16:44:00.775Z,25.10
2019-04-10T16:46:30.498Z,25.03
2019-04-10T16:49:00.287Z,27.77
2019-04-10T16:51:30.214Z,25.73
2019-04-10T16:54:00.185Z,26.43
2019-04-10T16:56:30.038Z,24.30
2019-04-10T16:59:00.505Z,24.97
2019-04-10T17:01:30.951Z,23.23
2019-04-10T17:04:00.889Z,25.60
2019-04-10T17:06:32.373Z,23.83
2019-04-10T17:09:02.714Z,23.57
2019-04-10T17:11:33.418Z,23.50
2019-04-10T17:14:03.153Z,24.37
2019-04-10T17:16:33.543Z,23.67
2019-04-10T17:19:03.579Z,22.70
2019-04-10T17:21:34.166Z,22.10
2019-04-10T17:24:05.160Z,23.23
2019-04-10T17:26:37.110Z,22.67
2019-04-10T17:29:07.131Z,22.53
2019-04-10T17:31:38.168Z,23.37
2019-04-10T17:34:08.339Z,26.53
2019-04-10T17:36:38.192Z,22.93
2019-04-10T17:39:13.394Z,22.80
2019-04-10T17:41:43.865Z,23.63
2019-04-10T17:44:13.801Z,25.23
2019-04-10T17:46:43.737Z,22.10
2019-04-10T17:49:14.915Z,25.57
2019-04-10T17:51:45.869Z,29.53
2019-04-10T17:54:15.880Z,24.83
2019-04-10T17:56:46.538Z,25.17
2019-04-10T17:59:16.836Z,22.50
2019-04-10T18:01:47.234Z,24.67
2019-04-10T18:04:17.932Z,27.10
2019-04-10T18:06:48.452Z,21.80
2019-04-10T18:09:18.315Z,28.80
2019-04-10T18:11:48.253Z,27.03
2019-04-10T18:14:19.452Z,23.70
2019-04-10T18:16:49.797Z,26.53
2019-04-10T18:19:21.201Z,26.30
2019-04-10T18:21:51.138Z,22.87
2019-04-10T18:24:21.897Z,22.93
2019-04-10T18:26:53.715Z,24.97
2019-04-10T18:29:23.502Z,26.60
2019-04-10T18:31:53.616Z,24.83
2019-04-10T18:34:23.197Z,24.80
2019-04-10T18:36:52.955Z,22.50
2019-04-10T18:39:24.000Z,24.83
2019-04-10T18:41:54.105Z,25.97
2019-04-10T18:44:24.693Z,28.70
2019-04-10T18:46:54.745Z,26.00
2019-04-10T18:49:24.890Z,23.80
2019-04-10T18:51:56.354Z,27.83
2019-04-10T18:54:26.963Z,26.53
2019-04-10T18:56:57.638Z,28.53
2019-04-10T18:59:49.406Z,24.70
2019-04-10T19:02:45.320Z,26.27
2019-04-10T19:05:25.241Z,25.80
2019-04-10T19:07:55.334Z,26.73
2019-04-10T19:10:26.433Z,26.90
2019-04-10T19:12:57.120Z,26.73
2019-04-10T19:15:28.665Z,29.60
2019-04-10T19:17:59.400Z,27.27
2019-04-10T19:20:29.347Z,27.63
2019-04-10T19:22:59.214Z,26.37
2019-04-10T19:25:30.066Z,26.23
2019-04-10T19:28:00.341Z,23.33
2019-04-10T19:30:53.830Z,26.13
2019-04-10T19:33:24.090Z,29.93
2019-04-10T19:35:55.174Z,26.50
2019-04-10T19:38:25.294Z,28.10
2019-04-10T19:40:56.259Z,27.30
2019-04-10T19:43:28.880Z,26.67
2019-04-10T19:45:58.504Z,27.60
2019-04-10T19:48:28.620Z,28.93
2019-04-10T19:50:59.569Z,26.03
2019-04-10T19:53:29.441Z,33.53
2019-04-10T19:56:00.222Z,28.40
2019-04-10T19:58:30.213Z,29.97
2019-04-10T20:01:01.081Z,27.67
2019-04-10T20:03:32.065Z,27.53
2019-04-10T20:06:02.275Z,28.27
2019-04-10T20:08:33.370Z,28.03
2019-04-10T20:11:03.410Z,29.90
2019-04-10T20:13:34.554Z,29.70
2019-04-10T20:16:06.674Z,27.20
2019-04-10T20:18:37.000Z,30.07
2019-04-10T20:21:06.540Z,28.53
2019-04-10T20:23:36.201Z,33.57
2019-04-10T20:26:07.130Z,31.63
2019-04-10T20:28:36.900Z,26.10
2019-04-10T20:31:08.913Z,29.33
2019-04-10T20:33:38.987Z,30.13
2019-04-10T20:36:08.902Z,30.00
2019-04-10T20:38:38.825Z,27.63
2019-04-10T20:41:08.698Z,28.17
2019-04-10T20:43:39.295Z,29.33
2019-04-10T20:46:09.811Z,31.97
2019-04-10T20:48:40.365Z,29.10
2019-04-10T20:51:10.339Z,31.57
2019-04-10T20:53:40.225Z,28.47
2019-04-10T20:56:10.442Z,31.70
2019-04-10T20:58:40.332Z,26.53
2019-04-10T21:01:10.371Z,31.63
2019-04-10T21:03:40.275Z,29.40
2019-04-10T21:06:09.926Z,29.37
2019-04-10T21:08:40.408Z,35.63
2019-04-10T21:11:10.266Z,32.33
2019-04-10T21:13:40.509Z,30.13
2019-04-10T21:16:11.249Z,35.50
2019-04-10T21:18:41.857Z,32.97
2019-04-10T21:21:12.327Z,29.40
2019-04-10T21:23:42.118Z,30.27
2019-04-10T21:26:12.190Z,30.33
2019-04-10T21:28:41.842Z,31.07
2019-04-10T21:31:29.124Z,29.67
2019-04-10T21:34:26.325Z,28.27
2019-04-10T21:36:56.127Z,27.43
2019-04-10T21:39:25.703Z,25.83
2019-04-10T21:41:55.677Z,28.80
2019-04-10T21:44:25.344Z,26.00
2019-04-10T21:46:55.150Z,27.03
2019-04-10T21:49:26.059Z,26.70
2019-04-10T21:51:55.841Z,27.70
2019-04-10T21:54:26.878Z,28.00
2019-04-10T21:56:57.674Z,31.43
2019-04-10T21:59:27.421Z,26.80
2019-04-10T22:01:57.058Z,25.00
2019-04-10T22:04:27.382Z,28.40
2019-04-10T22:07:11.858Z,29.27
